createdAt,value
2023-07-03T00:01:36.438Z,8.84
2023-07-03T00:04:21.339Z,9.32
2023-07-03T00:07:06.401Z,8.82
2023-07-03T00:09:51.791Z,8.85
2023-07-03T00:12:36.875Z,9.11
2023-07-03T00:15:22.116Z,8.70
2023-07-03T00:18:07.148Z,9.02
2023-07-03T00:20:52.512Z,8.72
2023-07-03T00:23:37.827Z,8.44
2023-07-03T00:26:23.169Z,8.66
2023-07-03T00:29:08.734Z,8.43
2023-07-03T00:31:53.796Z,8.38
2023-07-03T00:34:39.298Z,8.53
2023-07-03T00:37:24.766Z,8.31
2023-07-03T00:40:10.225Z,7.95
2023-07-03T00:42:55.505Z,8.98
2023-07-03T00:45:40.680Z,8.37
2023-07-03T00:48:25.882Z,8.50
2023-07-03T00:51:11.230Z,8.92
2023-07-03T00:53:56.768Z,8.80
2023-07-03T00:56:42.076Z,9.07
2023-07-03T00:59:27.525Z,8.92
2023-07-03T01:02:12.940Z,8.41
2023-07-03T01:04:58.364Z,8.36
2023-07-03T01:07:43.681Z,8.01
2023-07-03T01:10:28.876Z,8.27
2023-07-03T01:13:14.100Z,8.53
2023-07-03T01:15:59.591Z,8.33
2023-07-03T01:18:44.854Z,8.30
2023-07-03T01:21:34.174Z,8.37
2023-07-03T01:24:19.354Z,7.95
2023-07-03T01:27:04.938Z,8.37
2023-07-03T01:29:50.227Z,8.49
2023-07-03T01:32:35.577Z,8.56
2023-07-03T01:35:20.997Z,8.72
2023-07-03T01:38:06.152Z,8.68
2023-07-03T01:40:51.482Z,8.28
2023-07-03T01:43:36.908Z,7.89
2023-07-03T01:46:22.286Z,8.53
2023-07-03T01:49:07.713Z,8.06
2023-07-03T01:51:52.875Z,8.29
2023-07-03T01:54:38.076Z,8.42
2023-07-03T01:57:23.411Z,7.98
2023-07-03T02:00:08.952Z,7.86
2023-07-03T02:02:54.650Z,8.99
2023-07-03T02:05:39.763Z,8.09
2023-07-03T02:08:24.803Z,7.77
2023-07-03T02:11:10.011Z,8.59
2023-07-03T02:13:55.426Z,7.83
2023-07-03T02:16:40.847Z,8.52
2023-07-03T02:19:26.022Z,8.09
2023-07-03T02:22:11.696Z,7.58
2023-07-03T02:24:56.961Z,7.79
2023-07-03T02:27:42.289Z,8.39
2023-07-03T02:30:27.527Z,8.01
2023-07-03T02:33:12.737Z,8.35
2023-07-03T02:35:58.193Z,8.28
2023-07-03T02:38:43.721Z,8.04
2023-07-03T02:41:29.165Z,8.07
2023-07-03T02:44:14.289Z,8.01
2023-07-03T02:46:59.600Z,7.96
2023-07-03T02:49:44.725Z,8.47
2023-07-03T02:52:29.973Z,8.28
2023-07-03T02:55:15.481Z,8.01
2023-07-03T02:58:00.858Z,7.60
2023-07-03T03:00:46.306Z,7.95
2023-07-03T03:03:31.606Z,8.11
2023-07-03T03:06:16.925Z,8.34
2023-07-03T03:09:02.347Z,7.99
2023-07-03T03:11:47.548Z,8.42
2023-07-03T03:14:32.718Z,8.55
2023-07-03T03:17:18.005Z,8.09
2023-07-03T03:20:03.569Z,7.83
2023-07-03T03:22:49.138Z,8.07
2023-07-03T03:25:34.489Z,8.03
2023-07-03T03:28:19.628Z,7.70
2023-07-03T03:31:04.794Z,9.15
2023-07-03T03:33:49.845Z,8.08
2023-07-03T03:36:35.292Z,8.01
2023-07-03T03:39:20.651Z,8.13
2023-07-03T03:42:06.072Z,8.05
2023-07-03T03:44:51.413Z,8.10
2023-07-03T03:47:36.971Z,7.95
2023-07-03T03:50:22.320Z,7.82
2023-07-03T03:53:07.562Z,8.43
2023-07-03T03:55:53.333Z,8.03
2023-07-03T03:58:41.879Z,8.35
2023-07-03T04:01:27.187Z,8.00
2023-07-03T04:04:12.714Z,8.00
2023-07-03T04:06:57.935Z,7.78
2023-07-03T04:09:43.123Z,7.91
2023-07-03T04:12:28.304Z,8.13
2023-07-03T04:15:13.696Z,7.81
2023-07-03T04:17:59.019Z,7.93
2023-07-03T04:20:44.247Z,7.43
2023-07-03T04:23:29.706Z,8.23
2023-07-03T04:26:15.076Z,7.77
2023-07-03T04:29:00.196Z,7.66
2023-07-03T04:31:45.503Z,7.65
2023-07-03T04:34:31.009Z,8.08
2023-07-03T04:37:16.289Z,7.93
2023-07-03T04:40:01.564Z,7.75
2023-07-03T04:42:46.764Z,7.62
2023-07-03T04:45:32.022Z,7.49
2023-07-03T04:48:17.446Z,7.36
2023-07-03T04:51:02.700Z,7.39
2023-07-03T04:53:47.915Z,7.72
2023-07-03T04:56:33.359Z,7.69
2023-07-03T04:59:18.689Z,7.42
2023-07-03T05:02:04.091Z,7.40
2023-07-03T05:04:49.110Z,7.83
2023-07-03T05:07:34.375Z,6.91
2023-07-03T05:10:19.563Z,7.18
2023-07-03T05:13:04.820Z,7.49
2023-07-03T05:15:50.342Z,7.93
2023-07-03T05:18:35.760Z,8.09
2023-07-03T05:21:21.021Z,7.83
2023-07-03T05:24:06.242Z,8.14
2023-07-03T05:26:51.409Z,8.43
2023-07-03T05:29:37.033Z,7.81
2023-07-03T05:32:22.315Z,7.65
2023-07-03T05:35:07.671Z,7.34
2023-07-03T05:37:53.148Z,8.17
2023-07-03T05:40:38.628Z,7.66
2023-07-03T05:43:23.918Z,7.65
2023-07-03T05:46:09.328Z,7.85
2023-07-03T05:48:54.771Z,7.80
2023-07-03T05:51:40.100Z,7.66
2023-07-03T05:54:25.573Z,8.01
2023-07-03T05:57:10.928Z,8.02
2023-07-03T05:59:56.142Z,7.68
2023-07-03T06:02:41.649Z,7.64
2023-07-03T06:05:26.967Z,7.38
2023-07-03T06:08:12.422Z,7.83
2023-07-03T06:10:57.532Z,7.46
2023-07-03T06:13:43.028Z,8.02
2023-07-03T06:16:28.466Z,8.12
2023-07-03T06:19:13.770Z,7.94
2023-07-03T06:21:59.235Z,8.15
2023-07-03T06:24:44.424Z,8.03
2023-07-03T06:27:29.934Z,7.86
2023-07-03T06:30:15.410Z,8.35
2023-07-03T06:33:00.960Z,8.03
2023-07-03T06:35:46.419Z,7.74
2023-07-03T06:38:31.565Z,7.99
2023-07-03T06:41:17.062Z,8.08
2023-07-03T06:44:02.470Z,7.77
2023-07-03T06:46:50.844Z,8.10
2023-07-03T06:49:36.234Z,8.32
2023-07-03T06:52:21.392Z,7.78
2023-07-03T06:55:06.510Z,8.16
2023-07-03T06:57:51.863Z,7.96
2023-07-03T07:00:37.173Z,7.81
2023-07-03T07:03:22.861Z,8.02
2023-07-03T07:06:08.010Z,7.97
2023-07-03T07:08:53.470Z,7.84
2023-07-03T07:11:38.807Z,7.79
2023-07-03T07:14:24.275Z,8.14
2023-07-03T07:17:09.485Z,8.07
2023-07-03T07:19:57.304Z,7.85
2023-07-03T07:22:43.924Z,8.13
2023-07-03T07:25:29.221Z,7.94
2023-07-03T07:28:14.822Z,8.07
2023-07-03T07:31:00.279Z,8.09
2023-07-03T07:33:45.522Z,8.06
2023-07-03T07:36:30.915Z,7.70
2023-07-03T07:39:16.360Z,7.95
2023-07-03T07:42:01.692Z,7.57
2023-07-03T07:44:47.112Z,7.43
2023-07-03T07:47:32.394Z,7.93
2023-07-03T07:50:17.717Z,8.15
2023-07-03T07:53:03.184Z,7.52
2023-07-03T07:55:48.713Z,7.97
2023-07-03T07:58:34.590Z,8.01
2023-07-03T08:01:19.896Z,8.05
2023-07-03T08:04:05.357Z,7.80
2023-07-03T08:06:50.653Z,7.68
2023-07-03T08:09:35.969Z,7.71
2023-07-03T08:12:21.353Z,7.77
2023-07-03T08:15:06.730Z,8.31
2023-07-03T08:17:52.154Z,7.96
2023-07-03T08:20:37.211Z,7.80
2023-07-03T08:23:22.645Z,7.83
2023-07-03T08:26:07.636Z,7.76
2023-07-03T08:28:53.308Z,7.58
2023-07-03T08:31:38.764Z,7.77
2023-07-03T08:34:23.971Z,7.76
2023-07-03T08:37:09.521Z,7.51
2023-07-03T08:39:54.966Z,7.52
2023-07-03T08:42:40.490Z,7.82
2023-07-03T08:45:25.781Z,7.62
2023-07-03T08:48:11.257Z,7.90
2023-07-03T08:50:57.020Z,7.36
2023-07-03T08:53:42.558Z,7.37
2023-07-03T08:56:27.899Z,7.71
2023-07-03T08:59:13.350Z,7.80
2023-07-03T09:01:58.651Z,7.74
2023-07-03T09:04:44.333Z,7.59
2023-07-03T09:07:29.585Z,7.21
2023-07-03T09:10:15.006Z,7.81
2023-07-03T09:13:00.362Z,7.48
2023-07-03T09:15:45.885Z,7.32
2023-07-03T09:18:31.417Z,7.34
2023-07-03T09:21:16.665Z,6.84
2023-07-03T09:24:02.218Z,6.83
2023-07-03T09:26:47.890Z,7.00
2023-07-03T09:29:33.203Z,7.04
2023-07-03T09:32:18.554Z,7.20
2023-07-03T09:35:03.847Z,7.11
2023-07-03T09:37:49.233Z,6.77
2023-07-03T09:40:34.321Z,7.08
2023-07-03T09:43:19.731Z,7.13
2023-07-03T09:46:04.702Z,6.90
2023-07-03T09:48:50.126Z,7.39
2023-07-03T09:51:35.416Z,7.79
2023-07-03T09:54:20.866Z,7.57
2023-07-03T09:57:06.012Z,7.79
2023-07-03T09:59:51.048Z,7.92
2023-07-03T10:08:12.794Z,7.23
2023-07-03T10:13:45.959Z,7.39
2023-07-03T10:16:30.906Z,7.36
2023-07-03T10:19:16.433Z,7.78
2023-07-03T10:22:01.656Z,7.17
2023-07-03T10:24:47.066Z,7.33
2023-07-03T10:27:32.196Z,7.59
2023-07-03T10:30:17.622Z,6.99
2023-07-03T10:33:03.055Z,7.75
2023-07-03T10:35:48.481Z,7.49
2023-07-03T10:38:34.033Z,7.51
2023-07-03T10:41:19.115Z,7.03
2023-07-03T10:44:04.261Z,7.20
2023-07-03T10:46:49.880Z,7.34
2023-07-03T10:49:34.770Z,7.16
2023-07-03T10:52:20.098Z,7.19
2023-07-03T10:55:05.558Z,7.11
2023-07-03T10:57:50.987Z,7.45
2023-07-03T11:00:36.416Z,7.37
2023-07-03T11:03:21.734Z,7.15
2023-07-03T11:06:07.235Z,7.20
2023-07-03T11:08:52.741Z,7.12
2023-07-03T11:11:38.056Z,7.17
2023-07-03T11:14:23.418Z,7.35
2023-07-03T11:17:08.731Z,7.15
2023-07-03T11:19:53.913Z,7.31
2023-07-03T11:25:27.691Z,7.12
2023-07-03T11:28:13.134Z,6.67
2023-07-03T11:30:58.428Z,7.16
2023-07-03T11:36:43.415Z,6.73
2023-07-03T11:45:12.977Z,7.11
2023-07-03T11:47:58.495Z,6.77
2023-07-03T11:50:43.653Z,6.69
2023-07-03T11:53:29.130Z,6.36
2023-07-03T11:56:14.446Z,7.01
2023-07-03T11:58:59.843Z,6.55
2023-07-03T12:01:45.467Z,6.49
2023-07-03T12:04:30.889Z,6.65
2023-07-03T12:07:16.575Z,6.25
2023-07-03T12:10:01.737Z,6.83
2023-07-03T12:12:47.054Z,6.28
2023-07-03T12:15:32.287Z,6.61
2023-07-03T12:18:17.796Z,6.81
2023-07-03T12:21:03.278Z,6.50
2023-07-03T12:23:49.408Z,6.07
2023-07-03T12:26:35.054Z,6.50
2023-07-03T12:29:21.885Z,6.47
2023-07-03T12:32:08.628Z,6.46
2023-07-03T12:34:54.062Z,6.05
2023-07-03T12:37:39.278Z,6.05
2023-07-03T12:40:24.787Z,6.33
2023-07-03T12:43:09.980Z,6.23
2023-07-03T12:45:55.663Z,6.42
2023-07-03T12:48:41.021Z,6.23
2023-07-03T12:51:26.290Z,6.14
2023-07-03T12:54:11.746Z,6.03
2023-07-03T12:56:56.972Z,6.07
2023-07-03T12:59:42.382Z,6.39
2023-07-03T13:02:27.830Z,6.01
2023-07-03T13:05:13.236Z,6.48
2023-07-03T13:07:58.548Z,6.14
2023-07-03T13:10:43.993Z,6.09
2023-07-03T13:13:29.595Z,6.26
2023-07-03T13:16:14.811Z,6.02
2023-07-03T13:19:00.050Z,6.31
2023-07-03T13:21:45.621Z,5.77
2023-07-03T13:24:30.885Z,6.33
2023-07-03T13:27:16.418Z,5.84
2023-07-03T13:30:01.863Z,6.23
2023-07-03T13:32:47.317Z,5.80
2023-07-03T13:35:32.625Z,6.16
2023-07-03T13:38:17.814Z,5.78
2023-07-03T13:41:03.284Z,5.73
2023-07-03T13:43:48.718Z,5.83
2023-07-03T13:46:33.988Z,5.72
2023-07-03T13:49:19.550Z,5.78
2023-07-03T13:52:04.842Z,6.05
2023-07-03T13:54:50.257Z,5.76
2023-07-03T13:57:35.567Z,5.77
2023-07-03T14:00:20.607Z,5.63
2023-07-03T14:03:05.987Z,5.86
2023-07-03T14:05:51.538Z,5.76
2023-07-03T14:08:36.937Z,5.94
2023-07-03T14:11:22.260Z,5.93
2023-07-03T14:14:07.566Z,6.07
2023-07-03T14:16:52.879Z,5.63
2023-07-03T14:19:38.307Z,5.99
2023-07-03T14:22:23.604Z,5.73
2023-07-03T14:25:08.743Z,5.82
2023-07-03T14:27:54.009Z,5.72
2023-07-03T14:30:39.415Z,5.95
2023-07-03T14:33:25.112Z,5.49
2023-07-03T14:36:10.370Z,5.59
2023-07-03T14:38:55.742Z,5.70
2023-07-03T14:41:41.254Z,5.83
2023-07-03T14:44:26.493Z,5.41
2023-07-03T14:47:12.033Z,5.47
2023-07-03T14:49:57.374Z,5.37
2023-07-03T14:52:42.830Z,5.07
2023-07-03T14:55:28.284Z,4.94
2023-07-03T14:58:13.698Z,5.07
2023-07-03T15:00:59.199Z,5.18
2023-07-03T15:03:44.748Z,4.95
2023-07-03T15:06:30.383Z,4.75
2023-07-03T15:09:15.708Z,4.78
2023-07-03T15:12:01.047Z,4.86
2023-07-03T15:14:46.496Z,4.77
2023-07-03T15:17:31.924Z,4.65
2023-07-03T15:20:17.318Z,4.42
2023-07-03T15:23:02.675Z,4.50
2023-07-03T15:25:48.022Z,4.52
2023-07-03T15:28:33.499Z,4.62
2023-07-03T15:31:19.385Z,4.42
2023-07-03T15:34:04.803Z,4.53
2023-07-03T15:36:50.073Z,4.44
2023-07-03T15:39:35.805Z,4.14
2023-07-03T15:42:21.660Z,4.50
2023-07-03T15:45:06.895Z,4.34
2023-07-03T15:47:52.511Z,4.46
2023-07-03T15:50:37.736Z,4.19
2023-07-03T15:53:22.992Z,4.21
2023-07-03T15:56:08.486Z,4.46
2023-07-03T15:58:53.740Z,4.50
2023-07-03T16:01:39.480Z,4.18
2023-07-03T16:04:24.443Z,4.24
2023-07-03T16:07:09.835Z,4.30
2023-07-03T16:09:55.247Z,4.20
2023-07-03T16:12:40.447Z,4.16
2023-07-03T16:15:26.009Z,4.22
2023-07-03T16:18:11.308Z,4.05
2023-07-03T16:20:57.958Z,4.16
2023-07-03T16:23:43.017Z,3.87
2023-07-03T16:26:28.342Z,4.04
2023-07-03T16:29:13.750Z,4.24
2023-07-03T16:31:59.229Z,3.86
2023-07-03T16:34:44.875Z,3.96
2023-07-03T16:37:30.183Z,4.31
2023-07-03T16:40:15.237Z,4.16
2023-07-03T16:43:00.540Z,4.44
2023-07-03T16:45:46.142Z,4.54
2023-07-03T16:48:31.427Z,4.97
2023-07-03T16:51:16.953Z,5.04
2023-07-03T16:54:02.052Z,4.76
2023-07-03T16:56:47.395Z,4.89
2023-07-03T16:59:32.647Z,4.68
2023-07-03T17:02:19.755Z,4.66
2023-07-03T17:05:05.887Z,4.57
2023-07-03T17:07:51.424Z,4.55
2023-07-03T17:10:37.034Z,4.49
2023-07-03T17:13:22.196Z,4.41
2023-07-03T17:16:07.643Z,4.33
2023-07-03T17:18:52.795Z,4.49
2023-07-03T17:21:38.250Z,3.46
2023-07-03T17:24:23.424Z,3.30
2023-07-03T17:27:08.564Z,3.01
2023-07-03T17:29:54.135Z,3.11
2023-07-03T17:32:39.410Z,2.97
2023-07-03T17:35:24.916Z,3.00
2023-07-03T17:38:10.198Z,3.14
2023-07-03T17:40:55.597Z,3.14
2023-07-03T17:43:40.960Z,3.92
2023-07-03T17:46:27.712Z,3.90
2023-07-03T17:49:13.184Z,3.83
2023-07-03T17:51:58.522Z,3.02
2023-07-03T17:54:43.850Z,3.03
2023-07-03T17:57:29.033Z,3.01
2023-07-03T18:00:14.314Z,2.83
2023-07-03T18:03:00.701Z,3.24
2023-07-03T18:05:46.245Z,3.06
2023-07-03T18:08:31.623Z,3.36
2023-07-03T18:11:16.824Z,3.11
2023-07-03T18:14:02.184Z,3.15
2023-07-03T18:16:47.584Z,3.22
2023-07-03T18:19:32.959Z,3.29
2023-07-03T18:22:18.425Z,3.26
2023-07-03T18:25:03.853Z,3.11
2023-07-03T18:27:49.188Z,3.07
2023-07-03T18:30:34.590Z,3.00
2023-07-03T18:33:19.931Z,2.91
2023-07-03T18:36:05.239Z,3.09
2023-07-03T18:38:50.320Z,3.00
2023-07-03T18:41:35.701Z,3.10
2023-07-03T18:44:21.014Z,2.97
2023-07-03T18:47:06.298Z,3.28
2023-07-03T18:49:51.640Z,2.85
2023-07-03T18:52:37.049Z,2.85
2023-07-03T18:55:22.381Z,2.87
2023-07-03T18:58:07.601Z,3.13
2023-07-03T19:00:52.808Z,3.04
2023-07-03T19:03:38.216Z,2.89
2023-07-03T19:06:23.239Z,2.79
2023-07-03T19:09:08.567Z,2.68
2023-07-03T19:11:53.880Z,2.23
2023-07-03T19:14:38.774Z,2.30
2023-07-03T19:17:23.920Z,2.40
2023-07-03T19:20:12.357Z,2.33
2023-07-03T19:22:57.828Z,2.76
2023-07-03T19:25:43.954Z,2.45
2023-07-03T19:28:32.608Z,2.53
2023-07-03T19:31:18.005Z,2.51
2023-07-03T19:34:03.957Z,2.66
2023-07-03T19:36:49.247Z,2.65
2023-07-03T19:39:34.707Z,2.62
2023-07-03T19:42:20.482Z,2.30
2023-07-03T19:45:05.692Z,2.57
2023-07-03T19:47:50.888Z,2.41
2023-07-03T19:50:36.049Z,2.63
2023-07-03T19:53:21.284Z,2.32
2023-07-03T19:56:06.923Z,2.56
2023-07-03T19:58:52.175Z,2.56
2023-07-03T20:01:37.559Z,2.59
2023-07-03T20:04:23.386Z,2.40
2023-07-03T20:07:08.785Z,2.45
2023-07-03T20:09:54.093Z,2.42
2023-07-03T20:12:39.633Z,2.37
2023-07-03T20:15:25.401Z,2.45
2023-07-03T20:18:10.848Z,2.47
2023-07-03T20:20:55.921Z,2.39
2023-07-03T20:23:41.117Z,2.55
2023-07-03T20:26:26.482Z,2.36
2023-07-03T20:29:11.538Z,2.39
2023-07-03T20:31:56.943Z,2.18
2023-07-03T20:34:45.286Z,2.43
2023-07-03T20:37:30.590Z,2.44
2023-07-03T20:40:15.994Z,2.47
2023-07-03T20:43:01.203Z,2.32
2023-07-03T20:45:46.636Z,2.35
2023-07-03T20:48:31.811Z,2.33
2023-07-03T20:51:17.204Z,2.38
2023-07-03T20:54:02.205Z,2.24
2023-07-03T20:56:48.250Z,2.22
2023-07-03T20:59:33.543Z,2.38
2023-07-03T21:02:18.967Z,2.36
2023-07-03T21:05:04.288Z,2.38
2023-07-03T21:07:49.419Z,2.52
2023-07-03T21:10:34.998Z,2.34
2023-07-03T21:13:21.061Z,2.24
2023-07-03T21:16:06.477Z,2.41
2023-07-03T21:18:54.076Z,2.35
2023-07-03T21:21:39.361Z,2.23
2023-07-03T21:24:24.711Z,2.36
2023-07-03T21:27:10.479Z,2.38
2023-07-03T21:29:55.788Z,2.26
2023-07-03T21:32:40.894Z,2.42
2023-07-03T21:35:26.258Z,2.04
2023-07-03T21:38:11.336Z,2.16
2023-07-03T21:40:57.400Z,2.15
2023-07-03T21:43:44.276Z,2.21
2023-07-03T21:46:29.765Z,2.31
2023-07-03T21:49:15.026Z,2.12
2023-07-03T21:52:00.258Z,2.13
2023-07-03T21:54:45.672Z,2.30
2023-07-03T21:57:30.824Z,2.08
2023-07-03T22:00:16.288Z,2.26
2023-07-03T22:03:01.740Z,2.17
2023-07-03T22:05:46.970Z,2.08
2023-07-03T22:08:32.502Z,2.24
2023-07-03T22:11:17.658Z,2.25
2023-07-03T22:14:02.902Z,2.40
2023-07-03T22:16:48.216Z,2.35
2023-07-03T22:19:33.040Z,2.34
2023-07-03T22:22:18.418Z,2.16
2023-07-03T22:25:03.661Z,2.13
2023-07-03T22:27:49.067Z,2.23
2023-07-03T22:30:34.434Z,2.21
2023-07-03T22:33:19.813Z,2.07
2023-07-03T22:36:05.226Z,2.22
2023-07-03T22:38:50.667Z,2.21
2023-07-03T22:41:35.910Z,2.02
2023-07-03T22:44:21.186Z,2.06
2023-07-03T22:47:06.840Z,2.17
2023-07-03T22:49:51.923Z,1.98
2023-07-03T22:52:37.286Z,2.08
2023-07-03T22:55:24.052Z,2.00
2023-07-03T22:58:09.295Z,2.11
2023-07-03T23:00:54.711Z,2.20
2023-07-03T23:03:40.064Z,2.06
2023-07-03T23:06:25.232Z,2.07
2023-07-03T23:09:10.517Z,2.10
2023-07-03T23:11:55.873Z,1.98
2023-07-03T23:14:41.163Z,2.03
2023-07-03T23:17:26.310Z,2.10
2023-07-03T23:20:11.663Z,1.85
2023-07-03T23:22:57.139Z,1.95
2023-07-03T23:25:42.542Z,2.05
2023-07-03T23:28:28.203Z,2.25
2023-07-03T23:31:13.675Z,1.89
2023-07-03T23:33:59.123Z,1.97
2023-07-03T23:36:44.651Z,2.02
2023-07-03T23:39:30.064Z,2.05
2023-07-03T23:42:15.505Z,1.86
2023-07-03T23:45:00.706Z,1.95
2023-07-03T23:47:46.456Z,1.96
2023-07-03T23:50:31.536Z,2.01
2023-07-03T23:53:17.100Z,1.69
2023-07-03T23:56:02.484Z,1.98
2023-07-03T23:58:47.785Z,2.07
